(°C)
10°
(°C)
SSW
SSW
SSW
SW
SSW
SW
WSW
(km/h)
7-16
8-16
8-16
7-17
7-20
7-22
7-23
(mm)
3
3
1.5
1.3
1.2
1.3
1.5
(%)
82
81
81
90
98
98
98

Sonnenhöhe

/ 7.2°
sun-icon
UV 2
03:24
19:53
Abnehmender Mond (213°)
23:35
04:25

METAR für 55.61°N 49.28°O (UWKD)

Zeit Bedingungen Temperatur/
Taupunkt
Wind Sichtweite Wetter Wolken Druck Änderung Roh
MVFR 8°C / 7°C 210º 6kt 7000m Light Showers Rain 3.00mm precipitation Vertical Visibility of 0ft. 999 No Significant change. Runway 29: Wet or puddles, with <1mm, friction coefficient 0.50. UWKD 180100Z 21003MPS 7000 -SHRA BKN012CB 08/07 Q0999 R29/2/0050 NOSIG RMK QFE738/0984
VFR 8°C / 7°C 250º 6kt 9000m Light Showers Rain 3.00mm precipitation Vertical Visibility of 0ft. 999 No Significant change. Runway 29: Wet or puddles, with <1mm, friction coefficient 0.50. UWKD 180030Z 25003MPS 9000 -SHRA BKN038CB 08/07 Q0999 R29/2/0050 NOSIG RMK QFE738/0984
VFR 8°C / 7°C 280º 6kt >10km Light Showers Rain 3.00mm precipitation Vertical Visibility of 0ft. 999 No Significant change. Runway 29: Wet or puddles, with <1mm, friction coefficient 0.50. UWKD 180000Z 28003MPS 9999 -SHRA BKN049CB 08/07 Q0999 R29/2/0050 NOSIG RMK QFE738/0984
VFR 8°C / 7°C 290º 6kt >10km Light Showers Rain 3.00mm precipitation Vertical Visibility of 0ft. 999 No Significant change. Runway 29: Wet or puddles, with <1mm, friction coefficient 0.50. UWKD 172330Z 29003MPS 9999 -SHRA BKN047CB 08/07 Q0999 R29/2/0050 NOSIG RMK QFE738/0985
VFR 8°C / 7°C 290º 8kt 9000m Light Showers Rain 3.00mm precipitation Vertical Visibility of 0ft. 1000 No Significant change. Runway 29: Wet or puddles, with <1mm, friction coefficient 0.50. UWKD 172300Z 29004MPS 9000 -SHRA BKN039CB 08/07 Q1000 R29/2/0050 NOSIG RMK QFE739/0985
VFR 8°C / 7°C 320º 6kt 9000m Light Showers Rain 3.00mm precipitation Vertical Visibility of 0ft. 1000 No Significant change. Runway 11: Wet or puddles, with <1mm, friction coefficient 0.50. UWKD 172230Z 32003MPS 9000 -SHRA BKN038CB 08/07 Q1000 R11/2/0050 NOSIG RMK QFE740/0987
VFR 8°C / 7°C 320º variable 290º to 350º 6kt 9000m Light Showers Rain 3.00mm precipitation Vertical Visibility of 0ft. 1000 No Significant change. Runway 11: Wet or puddles, with <1mm, friction coefficient 0.50. UWKD 172200Z 32003MPS 290V350 9000 -SHRA BKN038CB 08/07 Q1000 R11/2/0050 NOSIG RMK QFE740/0987
VFR 8°C / 7°C 360º 6kt 9000m Light Showers Rain 3.00mm precipitation Vertical Visibility of 0ft. 1000 No Significant change. Runway 11: Wet or puddles, with <1mm, friction coefficient 0.50. UWKD 172130Z 36003MPS 9000 -SHRA BKN038CB 08/07 Q1000 R11/2/0050 NOSIG RMK QFE740/0987
VFR 8°C / 7°C 360º variable 330º to 050º 4kt >10km Light Showers Rain 3.00mm precipitation Vertical Visibility of 0ft. 1000 No Significant change. Runway 29: Wet or puddles, with <1mm, friction coefficient 0.50. UWKD 172100Z 36002MPS 330V050 9999 -SHRA BKN041CB 08/07 Q1000 R29/2/0050 NOSIG RMK QFE739/0985
VFR 8°C / 7°C 30º 4kt >10km Light Showers Rain 3.00mm precipitation Vertical Visibility of 0ft. 1000 No Significant change. Runway 29: Wet or puddles, with <1mm, friction coefficient 0.50. UWKD 172030Z 03002MPS 9999 3100SW -SHRA BKN039CB 08/07 Q1000 R29/2/0050 NOSIG RMK QFE739/0986
VFR 8°C / 7°C 10º 6kt 9000m Light Showers Rain 3.00mm precipitation Vertical Visibility of 0ft. 1000 No Significant change. Runway 29: Wet or puddles, with <1mm, friction coefficient 0.50. UWKD 172000Z 01003MPS 9000 -SHRA BKN041CB 08/07 Q1000 R29/2/0050 NOSIG RMK QFE739/0986
VFR 9°C / 8°C 20º 6kt >10km Light Showers Rain 3.00mm precipitation Vertical Visibility of 0ft. 1000 No Significant change. Runway 29: Wet or puddles, with <1mm, friction coefficient 0.50. UWKD 171930Z 02003MPS 9999 -SHRA BKN042CB 09/08 Q1000 R29/2/0050 NOSIG RMK QFE739/0986
MVFR 9°C / 8°C 360º 8kt 8000m Light Showers Rain 3.00mm precipitation Vertical Visibility of 0ft. 1000 No Significant change. Runway 29: Wet or puddles, with <1mm, friction coefficient 0.50. UWKD 171900Z 36004MPS 8000 -SHRA BKN040CB 09/08 Q1000 R29/2/0050 NOSIG RMK QFE739/0986
VFR 10°C / 7°C 340º 6kt >10km Light Showers Rain 3.00mm precipitation Vertical Visibility of 0ft. 1000 No Significant change. Runway 29: Wet or puddles, with <1mm, friction coefficient 0.50. UWKD 171830Z 34003MPS 9999 -SHRA BKN043CB 10/07 Q1000 R29/2/0050 NOSIG RMK QFE739/0986
VFR 9°C / 8°C variable 0kt >10km Light Showers Rain 3.00mm precipitation Vertical Visibility of 0ft. 1000 No Significant change. Runway 11: Wet or puddles, with <1mm, friction coefficient 0.50. UWKD 171800Z 00000MPS 9999 -SHRA BKN043CB 09/08 Q1000 R11/2/0050 NOSIG RMK QFE740/0987
MVFR 10°C / 7°C 100º variable 060º to 120º 6kt 8000m Light Showers Rain 3.00mm precipitation Vertical Visibility of 0ft. 1001 No Significant change. Runway 11: Wet or puddles, with <1mm, friction coefficient 0.50. UWKD 171730Z 10003MPS 060V120 8000 -SHRA BKN037CB 10/07 Q1001 R11/2/0050 NOSIG RMK QFE740/0987
MVFR 10°C / 8°C 110º variable 010º to 150º 6kt >10km Light Showers Rain 3.00mm precipitation Vertical Visibility of 0ft. 1000 No Significant change. Runway 29: Damp, with <1mm, friction coefficient 0.60. UWKD 171700Z 11003MPS 010V150 9999 -SHRA BKN023CB 10/08 Q1000 R29/1/0060 NOSIG RMK QFE739/0986
VFR 11°C / 7°C 310º 4kt >10km Light Showers Rain 3.00mm precipitation Vertical Visibility of 0ft. 1000 No Significant change. Runway 29: Damp, with <1mm, friction coefficient 0.60. UWKD 171630Z 31002MPS 9999 -SHRA BKN037CB 11/07 Q1000 R29/1/0060 NOSIG RMK QFE739/0986
VFR 12°C / 6°C 310º 4kt >10km - Broken Clouds 4500ft 1000 No Significant change. Runway 29: Damp, with <1mm, friction coefficient 0.60. UWKD 171600Z 31002MPS 9999 BKN045CB 12/06 Q1000 R29/1/0060 NOSIG RMK QFE739/0985
VFR 12°C / 6°C 320º 4kt >10km - Broken Clouds 5400ft 1000 No Significant change. Runway 29: Damp, with <1mm, friction coefficient 0.60. UWKD 171530Z 32002MPS 9999 BKN054CB 12/06 Q1000 R29/1/0060 NOSIG RMK QFE739/0985
VFR 12°C / 6°C 310º variable 290º to 350º 4kt >10km - Broken Clouds 5400ft 1000 No Significant change. Runway 29: Damp, with <1mm, friction coefficient 0.60. UWKD 171500Z 31002MPS 290V350 9999 BKN054CB 12/06 Q1000 R29/1/0060 NOSIG RMK QFE739/0985
VFR 13°C / 4°C 270º variable 240º to 300º 4kt >10km - Broken Clouds 6100ft 1000 No Significant change. Runway 29: Damp, with <1mm, friction coefficient 0.60. UWKD 171430Z 27002MPS 240V300 9999 BKN061CB 13/04 Q1000 R29/1/0060 NOSIG RMK QFE739/0985
VFR 13°C / 6°C 240º variable 200º to 260º 8kt >10km Light Showers Rain 3.00mm precipitation Vertical Visibility of 0ft. 1000 No Significant change. Runway 29: Damp, with <1mm, friction coefficient 0.60. UWKD 171400Z 24004MPS 200V260 9999 -SHRA BKN062CB 13/06 Q1000 R29/1/0060 NOSIG RMK QFE739/0985
VFR 13°C / 5°C 260º 8kt >10km - Broken Clouds 6000ft 1000 No Significant change. Runway 29: Damp, with <1mm, friction coefficient 0.60. UWKD 171330Z 26004MPS 9999 BKN060CB 13/05 Q1000 R29/1/0060 NOSIG RMK QFE739/0985

MVFR

8°C / 7°C

[Mehr]
Wind 210º 6kt
Sichtweite 7000m
Wetter Light Showers Rain 3.00mm precipitation
Wolken Vertical Visibility of 0ft.
Druck 999
Änderung No Significant change. Runway 29: Wet or puddles, with <1mm, friction coefficient 0.50.
Roh UWKD 180100Z 21003MPS 7000 -SHRA BKN012CB 08/07 Q0999 R29/2/0050 NOSIG RMK QFE738/0984

VFR

8°C / 7°C

[Mehr]
Wind 250º 6kt
Sichtweite 9000m
Wetter Light Showers Rain 3.00mm precipitation
Wolken Vertical Visibility of 0ft.
Druck 999
Änderung No Significant change. Runway 29: Wet or puddles, with <1mm, friction coefficient 0.50.
Roh UWKD 180030Z 25003MPS 9000 -SHRA BKN038CB 08/07 Q0999 R29/2/0050 NOSIG RMK QFE738/0984

VFR

8°C / 7°C

[Mehr]
Wind 280º 6kt
Sichtweite >10km
Wetter Light Showers Rain 3.00mm precipitation
Wolken Vertical Visibility of 0ft.
Druck 999
Änderung No Significant change. Runway 29: Wet or puddles, with <1mm, friction coefficient 0.50.
Roh UWKD 180000Z 28003MPS 9999 -SHRA BKN049CB 08/07 Q0999 R29/2/0050 NOSIG RMK QFE738/0984

VFR

8°C / 7°C

[Mehr]
Wind 290º 6kt
Sichtweite >10km
Wetter Light Showers Rain 3.00mm precipitation
Wolken Vertical Visibility of 0ft.
Druck 999
Änderung No Significant change. Runway 29: Wet or puddles, with <1mm, friction coefficient 0.50.
Roh UWKD 172330Z 29003MPS 9999 -SHRA BKN047CB 08/07 Q0999 R29/2/0050 NOSIG RMK QFE738/0985

VFR

8°C / 7°C

[Mehr]
Wind 290º 8kt
Sichtweite 9000m
Wetter Light Showers Rain 3.00mm precipitation
Wolken Vertical Visibility of 0ft.
Druck 1000
Änderung No Significant change. Runway 29: Wet or puddles, with <1mm, friction coefficient 0.50.
Roh UWKD 172300Z 29004MPS 9000 -SHRA BKN039CB 08/07 Q1000 R29/2/0050 NOSIG RMK QFE739/0985

VFR

8°C / 7°C

[Mehr]
Wind 320º 6kt
Sichtweite 9000m
Wetter Light Showers Rain 3.00mm precipitation
Wolken Vertical Visibility of 0ft.
Druck 1000
Änderung No Significant change. Runway 11: Wet or puddles, with <1mm, friction coefficient 0.50.
Roh UWKD 172230Z 32003MPS 9000 -SHRA BKN038CB 08/07 Q1000 R11/2/0050 NOSIG RMK QFE740/0987

VFR

8°C / 7°C

[Mehr]
Wind 320º variable 290º to 350º 6kt
Sichtweite 9000m
Wetter Light Showers Rain 3.00mm precipitation
Wolken Vertical Visibility of 0ft.
Druck 1000
Änderung No Significant change. Runway 11: Wet or puddles, with <1mm, friction coefficient 0.50.
Roh UWKD 172200Z 32003MPS 290V350 9000 -SHRA BKN038CB 08/07 Q1000 R11/2/0050 NOSIG RMK QFE740/0987

VFR

8°C / 7°C

[Mehr]
Wind 360º 6kt
Sichtweite 9000m
Wetter Light Showers Rain 3.00mm precipitation
Wolken Vertical Visibility of 0ft.
Druck 1000
Änderung No Significant change. Runway 11: Wet or puddles, with <1mm, friction coefficient 0.50.
Roh UWKD 172130Z 36003MPS 9000 -SHRA BKN038CB 08/07 Q1000 R11/2/0050 NOSIG RMK QFE740/0987

VFR

8°C / 7°C

[Mehr]
Wind 360º variable 330º to 050º 4kt
Sichtweite >10km
Wetter Light Showers Rain 3.00mm precipitation
Wolken Vertical Visibility of 0ft.
Druck 1000
Änderung No Significant change. Runway 29: Wet or puddles, with <1mm, friction coefficient 0.50.
Roh UWKD 172100Z 36002MPS 330V050 9999 -SHRA BKN041CB 08/07 Q1000 R29/2/0050 NOSIG RMK QFE739/0985

VFR

8°C / 7°C

[Mehr]
Wind 30º 4kt
Sichtweite >10km
Wetter Light Showers Rain 3.00mm precipitation
Wolken Vertical Visibility of 0ft.
Druck 1000
Änderung No Significant change. Runway 29: Wet or puddles, with <1mm, friction coefficient 0.50.
Roh UWKD 172030Z 03002MPS 9999 3100SW -SHRA BKN039CB 08/07 Q1000 R29/2/0050 NOSIG RMK QFE739/0986

VFR

8°C / 7°C

[Mehr]
Wind 10º 6kt
Sichtweite 9000m
Wetter Light Showers Rain 3.00mm precipitation
Wolken Vertical Visibility of 0ft.
Druck 1000
Änderung No Significant change. Runway 29: Wet or puddles, with <1mm, friction coefficient 0.50.
Roh UWKD 172000Z 01003MPS 9000 -SHRA BKN041CB 08/07 Q1000 R29/2/0050 NOSIG RMK QFE739/0986

VFR

9°C / 8°C

[Mehr]
Wind 20º 6kt
Sichtweite >10km
Wetter Light Showers Rain 3.00mm precipitation
Wolken Vertical Visibility of 0ft.
Druck 1000
Änderung No Significant change. Runway 29: Wet or puddles, with <1mm, friction coefficient 0.50.
Roh UWKD 171930Z 02003MPS 9999 -SHRA BKN042CB 09/08 Q1000 R29/2/0050 NOSIG RMK QFE739/0986

MVFR

9°C / 8°C

[Mehr]
Wind 360º 8kt
Sichtweite 8000m
Wetter Light Showers Rain 3.00mm precipitation
Wolken Vertical Visibility of 0ft.
Druck 1000
Änderung No Significant change. Runway 29: Wet or puddles, with <1mm, friction coefficient 0.50.
Roh UWKD 171900Z 36004MPS 8000 -SHRA BKN040CB 09/08 Q1000 R29/2/0050 NOSIG RMK QFE739/0986

VFR

10°C / 7°C

[Mehr]
Wind 340º 6kt
Sichtweite >10km
Wetter Light Showers Rain 3.00mm precipitation
Wolken Vertical Visibility of 0ft.
Druck 1000
Änderung No Significant change. Runway 29: Wet or puddles, with <1mm, friction coefficient 0.50.
Roh UWKD 171830Z 34003MPS 9999 -SHRA BKN043CB 10/07 Q1000 R29/2/0050 NOSIG RMK QFE739/0986

VFR

9°C / 8°C

[Mehr]
Wind variable 0kt
Sichtweite >10km
Wetter Light Showers Rain 3.00mm precipitation
Wolken Vertical Visibility of 0ft.
Druck 1000
Änderung No Significant change. Runway 11: Wet or puddles, with <1mm, friction coefficient 0.50.
Roh UWKD 171800Z 00000MPS 9999 -SHRA BKN043CB 09/08 Q1000 R11/2/0050 NOSIG RMK QFE740/0987

MVFR

10°C / 7°C

[Mehr]
Wind 100º variable 060º to 120º 6kt
Sichtweite 8000m
Wetter Light Showers Rain 3.00mm precipitation
Wolken Vertical Visibility of 0ft.
Druck 1001
Änderung No Significant change. Runway 11: Wet or puddles, with <1mm, friction coefficient 0.50.
Roh UWKD 171730Z 10003MPS 060V120 8000 -SHRA BKN037CB 10/07 Q1001 R11/2/0050 NOSIG RMK QFE740/0987

MVFR

10°C / 8°C

[Mehr]
Wind 110º variable 010º to 150º 6kt
Sichtweite >10km
Wetter Light Showers Rain 3.00mm precipitation
Wolken Vertical Visibility of 0ft.
Druck 1000
Änderung No Significant change. Runway 29: Damp, with <1mm, friction coefficient 0.60.
Roh UWKD 171700Z 11003MPS 010V150 9999 -SHRA BKN023CB 10/08 Q1000 R29/1/0060 NOSIG RMK QFE739/0986

VFR

11°C / 7°C

[Mehr]
Wind 310º 4kt
Sichtweite >10km
Wetter Light Showers Rain 3.00mm precipitation
Wolken Vertical Visibility of 0ft.
Druck 1000
Änderung No Significant change. Runway 29: Damp, with <1mm, friction coefficient 0.60.
Roh UWKD 171630Z 31002MPS 9999 -SHRA BKN037CB 11/07 Q1000 R29/1/0060 NOSIG RMK QFE739/0986

VFR

12°C / 6°C

[Mehr]
Wind 310º 4kt
Sichtweite >10km
Wetter -
Wolken Broken Clouds 4500ft
Druck 1000
Änderung No Significant change. Runway 29: Damp, with <1mm, friction coefficient 0.60.
Roh UWKD 171600Z 31002MPS 9999 BKN045CB 12/06 Q1000 R29/1/0060 NOSIG RMK QFE739/0985

VFR

12°C / 6°C

[Mehr]
Wind 320º 4kt
Sichtweite >10km
Wetter -
Wolken Broken Clouds 5400ft
Druck 1000
Änderung No Significant change. Runway 29: Damp, with <1mm, friction coefficient 0.60.
Roh UWKD 171530Z 32002MPS 9999 BKN054CB 12/06 Q1000 R29/1/0060 NOSIG RMK QFE739/0985

VFR

12°C / 6°C

[Mehr]
Wind 310º variable 290º to 350º 4kt
Sichtweite >10km
Wetter -
Wolken Broken Clouds 5400ft
Druck 1000
Änderung No Significant change. Runway 29: Damp, with <1mm, friction coefficient 0.60.
Roh UWKD 171500Z 31002MPS 290V350 9999 BKN054CB 12/06 Q1000 R29/1/0060 NOSIG RMK QFE739/0985

VFR

13°C / 4°C

[Mehr]
Wind 270º variable 240º to 300º 4kt
Sichtweite >10km
Wetter -
Wolken Broken Clouds 6100ft
Druck 1000
Änderung No Significant change. Runway 29: Damp, with <1mm, friction coefficient 0.60.
Roh UWKD 171430Z 27002MPS 240V300 9999 BKN061CB 13/04 Q1000 R29/1/0060 NOSIG RMK QFE739/0985

VFR

13°C / 6°C

[Mehr]
Wind 240º variable 200º to 260º 8kt
Sichtweite >10km
Wetter Light Showers Rain 3.00mm precipitation
Wolken Vertical Visibility of 0ft.
Druck 1000
Änderung No Significant change. Runway 29: Damp, with <1mm, friction coefficient 0.60.
Roh UWKD 171400Z 24004MPS 200V260 9999 -SHRA BKN062CB 13/06 Q1000 R29/1/0060 NOSIG RMK QFE739/0985

VFR

13°C / 5°C

[Mehr]
Wind 260º 8kt
Sichtweite >10km
Wetter -
Wolken Broken Clouds 6000ft
Druck 1000
Änderung No Significant change. Runway 29: Damp, with <1mm, friction coefficient 0.60.
Roh UWKD 171330Z 26004MPS 9999 BKN060CB 13/05 Q1000 R29/1/0060 NOSIG RMK QFE739/0985

TAF für 55.61°N 49.28°O (UWKD)

From till


Maximum Temperature 12ºC on . Minimum Temperature 7ºC on .
From till Wind 270º 6kt. Visibility 6000m. Light Rain . Overcast 1600ft.
Temporarly from till Visibility 2000m. Showers Rain Mist . Broken Clouds 300ft. Broken Clouds 2000ft.
Becoming from till Wind 360º 10kt. Gust 23kt. Visibility 6000m. Light Rain . Overcast 1600ft.
Temporarly from till Visibility 3100m. Light Showers Rain . Broken Clouds 1700ft.
Becoming from till Wind 360º 10kt. Gust 23kt. Visibility 10km or more. Broken Clouds 2000ft.

Roh: TAF AMD UWKD 180105Z 1801/1824 27003MPS 6000 -RA OVC016 TX12/1813Z TN07/1802Z TEMPO 1801/1806 2000 SHRA BR BKN003 BKN020CB BECMG 1806/1808 36005G12MPS TEMPO 1809/1815 3100 -SHRA BKN017CB BECMG 1815/1817 9999 NSW BKN020

Radar- und Niederschlags-Nowcast für 55.61°N 49.28°O

Nieselregen
Leicht
Moderat
Stark
Sehr schwer
Hagel

Die Ortsmarkierung zeigt auf 55.61°N 49.28°O. Diese Animation zeigt das Niederschlagsradar der letzten Stunde, sowie eine 1h Vorhersage. Nieselregen und leichter Schneefall können für das Radar unsichtbar sein. Die Niederschlagsintensität ist farbcodiert von Hellblau bis Orange.

Aktuelle Satelliten- und Regenbilder für 55.61°N 49.28°O

Die Standortmarkierung ist platziert auf 55.61°N 49.28°O. [Mehr]

Das Echtzeit-Satellitenbild kombiniert sichtbares Licht während des Tages mit Infrarotstrahlung während der Nacht. Nachts ist das Bild nicht dunkel, da Infrarotstrahlung Temperaturunterschiede erkennen kann. Leider sind niedrige Wolken und Nebel nur schwer von den Bodentemperaturen zu unterscheiden und können daher nachts fast unsichtbar sein. Meteosat-Satellitenbilder für Europa werden alle 5 Minuten in Echtzeit aktualisiert. Die Bilder GOES-16 / GOES-17 (Nord- und Südamerika) und Himawari (Asien) werden alle 10 Minuten aktualisiert.

Copyright 2022 EUMETSAT / meteoblue. / Copyright 2022 meteoblue

Zum Anfang